createdAt,value
2022-12-18T00:02:08.288Z,-73
2022-12-18T00:04:34.812Z,-73
2022-12-18T00:07:01.290Z,-73
2022-12-18T00:09:31.187Z,-73
2022-12-18T00:14:42.277Z,-73
2022-12-18T00:17:08.741Z,-73
2022-12-18T00:19:35.666Z,-73
2022-12-18T00:22:02.158Z,-73
2022-12-18T00:24:28.623Z,-73
2022-12-18T00:26:55.098Z,-74
2022-12-18T00:29:21.561Z,-73
2022-12-18T00:31:48.115Z,-73
2022-12-18T00:34:14.608Z,-73
2022-12-18T00:36:41.071Z,-73
2022-12-18T00:39:07.548Z,-73
2022-12-18T00:41:34.021Z,-73
2022-12-18T00:44:00.484Z,-73
2022-12-18T00:46:26.928Z,-73
2022-12-18T00:48:53.399Z,-73
2022-12-18T00:51:19.856Z,-73
2022-12-18T00:53:46.353Z,-73
2022-12-18T00:56:12.820Z,-73
2022-12-18T00:58:39.291Z,-73
2022-12-18T01:01:05.827Z,-73
2022-12-18T01:03:32.340Z,-73
2022-12-18T01:05:58.796Z,-73
2022-12-18T01:08:25.276Z,-73
2022-12-18T01:10:51.735Z,-73
2022-12-18T01:13:18.216Z,-73
2022-12-18T01:15:44.680Z,-73
2022-12-18T01:18:11.159Z,-73
2022-12-18T01:20:38.728Z,-73
2022-12-18T01:23:05.214Z,-73
2022-12-18T01:25:31.679Z,-73
2022-12-18T01:27:58.157Z,-73
2022-12-18T01:30:24.598Z,-73
2022-12-18T01:32:51.045Z,-73
2022-12-18T01:35:17.493Z,-73
2022-12-18T01:37:43.957Z,-73
2022-12-18T01:40:10.406Z,-73
2022-12-18T01:42:36.842Z,-73
2022-12-18T01:45:03.305Z,-73
2022-12-18T01:47:29.751Z,-73
2022-12-18T01:49:56.227Z,-73
2022-12-18T01:52:22.677Z,-73
2022-12-18T01:54:49.152Z,-73
2022-12-18T01:57:15.627Z,-73
2022-12-18T01:59:42.205Z,-73
2022-12-18T02:02:08.819Z,-73
2022-12-18T02:04:35.473Z,-73
2022-12-18T02:07:01.929Z,-73
2022-12-18T02:09:28.409Z,-73
2022-12-18T02:11:54.879Z,-73
2022-12-18T02:14:21.347Z,-73
2022-12-18T02:16:47.890Z,-73
2022-12-18T02:19:14.454Z,-73
2022-12-18T02:21:40.918Z,-73
2022-12-18T02:24:07.393Z,-73
2022-12-18T02:26:33.856Z,-73
2022-12-18T02:29:00.336Z,-73
2022-12-18T02:31:26.802Z,-73
2022-12-18T02:33:53.294Z,-73
2022-12-18T02:36:19.750Z,-73
2022-12-18T02:38:46.234Z,-73
2022-12-18T02:41:12.691Z,-73
2022-12-18T02:43:39.575Z,-73
2022-12-18T02:46:06.314Z,-73
2022-12-18T02:48:32.808Z,-73
2022-12-18T02:50:59.263Z,-73
2022-12-18T02:53:25.720Z,-73
2022-12-18T02:55:52.178Z,-73
2022-12-18T02:58:18.629Z,-73
2022-12-18T03:00:45.092Z,-73
2022-12-18T03:03:11.619Z,-73
2022-12-18T03:05:38.139Z,-73
2022-12-18T03:08:04.605Z,-73
2022-12-18T03:10:31.082Z,-73
2022-12-18T03:12:57.550Z,-73
2022-12-18T03:15:24.037Z,-73
2022-12-18T03:17:50.502Z,-73
2022-12-18T03:20:16.964Z,-73
2022-12-18T03:22:43.417Z,-73
2022-12-18T03:25:09.899Z,-73
2022-12-18T03:27:36.350Z,-73
2022-12-18T03:30:02.809Z,-73
2022-12-18T03:32:29.266Z,-73
2022-12-18T03:34:55.746Z,-73
2022-12-18T03:37:22.197Z,-73
2022-12-18T03:39:48.687Z,-73
2022-12-18T03:42:15.156Z,-73
2022-12-18T03:44:41.607Z,-73
2022-12-18T03:47:08.075Z,-73
2022-12-18T03:49:34.545Z,-73
2022-12-18T03:52:01.015Z,-73
2022-12-18T03:54:27.468Z,-73
2022-12-18T03:56:53.932Z,-73
2022-12-18T03:59:20.385Z,-73
2022-12-18T04:01:46.931Z,-73
2022-12-18T04:04:13.550Z,-73
2022-12-18T04:06:40.046Z,-73
2022-12-18T04:09:06.529Z,-73
2022-12-18T04:11:33.006Z,-73
2022-12-18T04:13:59.469Z,-73
2022-12-18T04:16:25.959Z,-73
2022-12-18T04:18:52.441Z,-73
2022-12-18T04:21:18.925Z,-73
2022-12-18T04:23:45.372Z,-73
2022-12-18T04:26:11.837Z,-73
2022-12-18T04:28:38.295Z,-73
2022-12-18T04:31:04.823Z,-73
2022-12-18T04:33:31.321Z,-73
2022-12-18T04:35:57.815Z,-73
2022-12-18T04:38:24.280Z,-73
2022-12-18T04:40:50.768Z,-73
2022-12-18T04:43:17.334Z,-73
2022-12-18T04:45:43.874Z,-73
2022-12-18T04:48:10.334Z,-73
2022-12-18T04:50:37.319Z,-73
2022-12-18T04:53:03.766Z,-73
2022-12-18T04:55:30.248Z,-73
2022-12-18T04:57:56.719Z,-73
2022-12-18T05:00:23.179Z,-73
2022-12-18T05:02:49.716Z,-73
2022-12-18T05:05:16.238Z,-73
2022-12-18T05:07:42.709Z,-73
2022-12-18T05:10:09.163Z,-73
2022-12-18T05:12:37.788Z,-73
2022-12-18T05:15:04.242Z,-73
2022-12-18T05:17:30.707Z,-73
2022-12-18T05:19:57.155Z,-73
2022-12-18T05:22:23.608Z,-73
2022-12-18T05:24:50.076Z,-73
2022-12-18T05:27:16.539Z,-73
2022-12-18T05:29:43.003Z,-73
2022-12-18T05:32:09.455Z,-73
2022-12-18T05:34:35.902Z,-73
2022-12-18T05:37:02.363Z,-73
2022-12-18T05:39:28.833Z,-73
2022-12-18T05:41:55.313Z,-73
2022-12-18T05:44:21.769Z,-73
2022-12-18T05:46:48.304Z,-73
2022-12-18T05:49:14.804Z,-73
2022-12-18T05:51:41.279Z,-73
2022-12-18T05:54:08.039Z,-73
2022-12-18T05:56:34.629Z,-73
2022-12-18T05:59:01.096Z,-73
2022-12-18T06:01:27.717Z,-73
2022-12-18T06:03:54.334Z,-73
2022-12-18T06:06:20.894Z,-73
2022-12-18T06:08:47.364Z,-73
2022-12-18T06:11:13.829Z,-73
2022-12-18T06:13:40.640Z,-73
2022-12-18T06:16:07.338Z,-73
2022-12-18T06:18:33.828Z,-73
2022-12-18T06:21:00.297Z,-73
2022-12-18T06:23:26.779Z,-73
2022-12-18T06:25:53.249Z,-73
2022-12-18T06:28:19.714Z,-73
2022-12-18T06:30:47.234Z,-73
2022-12-18T06:33:13.716Z,-73
2022-12-18T06:35:40.175Z,-73
2022-12-18T06:38:06.630Z,-73
2022-12-18T06:40:33.090Z,-73
2022-12-18T06:42:59.560Z,-73
2022-12-18T06:45:26.064Z,-73
2022-12-18T06:47:52.578Z,-73
2022-12-18T06:50:19.025Z,-73
2022-12-18T06:52:45.527Z,-73
2022-12-18T06:55:11.983Z,-73
2022-12-18T06:57:38.463Z,-73
2022-12-18T07:00:04.950Z,-73
2022-12-18T07:02:31.492Z,-73
2022-12-18T07:04:58.040Z,-73
2022-12-18T07:07:24.540Z,-73
2022-12-18T07:09:50.997Z,-73
2022-12-18T07:12:17.486Z,-73
2022-12-18T07:14:43.946Z,-73
2022-12-18T07:17:10.436Z,-73
2022-12-18T07:19:36.984Z,-73
2022-12-18T07:22:03.450Z,-73
2022-12-18T07:24:30.995Z,-73
2022-12-18T07:26:57.461Z,-73
2022-12-18T07:29:23.941Z,-73
2022-12-18T07:31:50.472Z,-73
2022-12-18T07:34:16.963Z,-73
2022-12-18T07:36:43.441Z,-73
2022-12-18T07:39:09.910Z,-73
2022-12-18T07:41:36.356Z,-73
2022-12-18T07:44:02.822Z,-73
2022-12-18T07:46:29.279Z,-73
2022-12-18T07:48:55.761Z,-73
2022-12-18T07:51:22.221Z,-73
2022-12-18T07:53:49.604Z,-73
2022-12-18T07:56:27.303Z,-73
2022-12-18T07:58:54.506Z,-73
2022-12-18T08:01:21.328Z,-73
2022-12-18T08:03:48.049Z,-73
2022-12-18T08:06:14.710Z,-73
2022-12-18T08:08:41.174Z,-73
2022-12-18T08:11:07.636Z,-73
2022-12-18T08:13:34.109Z,-73
2022-12-18T08:16:00.578Z,-73
2022-12-18T08:18:27.063Z,-73
2022-12-18T08:20:53.526Z,-73
2022-12-18T08:23:19.998Z,-73
2022-12-18T08:25:46.469Z,-73
2022-12-18T08:28:12.934Z,-73
2022-12-18T08:30:39.437Z,-73
2022-12-18T08:33:05.970Z,-73
2022-12-18T08:35:36.977Z,-73
2022-12-18T08:38:05.322Z,-73
2022-12-18T08:40:31.798Z,-73
2022-12-18T08:42:58.273Z,-73
2022-12-18T08:45:24.745Z,-73
2022-12-18T08:47:51.194Z,-73
2022-12-18T08:50:17.661Z,-73
2022-12-18T08:52:44.168Z,-73
2022-12-18T08:55:10.640Z,-73
2022-12-18T08:57:37.112Z,-73
2022-12-18T09:00:03.569Z,-73
2022-12-18T09:02:30.163Z,-73
2022-12-18T09:04:57.738Z,-72
2022-12-18T09:07:24.377Z,-73
2022-12-18T09:09:50.853Z,-73
2022-12-18T09:12:17.332Z,-73
2022-12-18T09:14:43.797Z,-73
2022-12-18T09:17:11.542Z,-73
2022-12-18T09:19:38.079Z,-73
2022-12-18T09:22:04.553Z,-73
2022-12-18T09:24:31.006Z,-73
2022-12-18T09:26:57.960Z,-73
2022-12-18T09:29:24.667Z,-73
2022-12-18T09:31:51.136Z,-73
2022-12-18T09:34:17.617Z,-73
2022-12-18T09:36:44.087Z,-73
2022-12-18T09:39:10.579Z,-73
2022-12-18T09:41:37.059Z,-73
2022-12-18T09:44:03.541Z,-73
2022-12-18T09:46:30.115Z,-73
2022-12-18T09:48:56.672Z,-73
2022-12-18T09:51:23.193Z,-73
2022-12-18T09:53:49.641Z,-73
2022-12-18T09:56:16.088Z,-73
2022-12-18T09:58:42.962Z,-73
2022-12-18T10:01:09.780Z,-73
2022-12-18T10:03:36.268Z,-73
2022-12-18T10:06:02.782Z,-73
2022-12-18T10:08:29.255Z,-73
2022-12-18T10:10:55.716Z,-73
2022-12-18T10:13:23.322Z,-73
2022-12-18T10:15:50.763Z,-73
2022-12-18T10:18:21.733Z,-73
2022-12-18T10:20:48.617Z,-73
2022-12-18T10:23:15.069Z,-73
2022-12-18T10:25:41.564Z,-73
2022-12-18T10:28:08.050Z,-73
2022-12-18T10:30:34.517Z,-73
2022-12-18T10:33:00.958Z,-73
2022-12-18T10:35:27.451Z,-73
2022-12-18T10:37:53.918Z,-73
2022-12-18T10:40:22.824Z,-73
2022-12-18T10:42:49.388Z,-73
2022-12-18T10:45:15.841Z,-73
2022-12-18T10:47:43.570Z,-73
2022-12-18T10:50:10.966Z,-73
2022-12-18T10:52:40.810Z,-73
2022-12-18T10:55:10.036Z,-73
2022-12-18T10:57:36.509Z,-73
2022-12-18T11:00:02.975Z,-73
2022-12-18T11:02:29.655Z,-73
2022-12-18T11:04:56.316Z,-73
2022-12-18T11:07:22.773Z,-73
2022-12-18T11:09:49.244Z,-73
2022-12-18T11:12:15.725Z,-73
2022-12-18T11:14:46.578Z,-73
2022-12-18T11:17:28.956Z,-73
2022-12-18T11:19:55.407Z,-73
2022-12-18T11:22:21.862Z,-73
2022-12-18T11:25:08.380Z,-75
2022-12-18T11:27:34.783Z,-75
2022-12-18T11:30:01.223Z,-75
2022-12-18T11:32:27.690Z,-75
2022-12-18T11:34:58.915Z,-74
2022-12-18T11:37:25.679Z,-74
2022-12-18T11:39:52.171Z,-74
2022-12-18T11:42:18.651Z,-74
2022-12-18T11:44:45.112Z,-74
2022-12-18T11:47:11.596Z,-74
2022-12-18T11:49:38.077Z,-75
2022-12-18T11:52:04.539Z,-74
2022-12-18T11:54:30.985Z,-74
2022-12-18T11:56:57.451Z,-74
2022-12-18T11:59:24.834Z,-75
2022-12-18T12:01:51.376Z,-74
2022-12-18T12:04:18.022Z,-74
2022-12-18T12:06:47.657Z,-74
2022-12-18T12:09:14.116Z,-74
2022-12-18T12:11:40.586Z,-74
2022-12-18T12:14:07.054Z,-74
2022-12-18T12:16:33.589Z,-74
2022-12-18T12:19:00.097Z,-74
2022-12-18T12:21:26.593Z,-75
2022-12-18T12:23:53.623Z,-74
2022-12-18T12:26:20.096Z,-74
2022-12-18T12:28:46.563Z,-75
2022-12-18T12:31:13.117Z,-75
2022-12-18T12:33:39.875Z,-75
2022-12-18T12:36:06.547Z,-75
2022-12-18T12:38:33.006Z,-74
2022-12-18T12:41:03.053Z,-75
2022-12-18T12:43:30.057Z,-74
2022-12-18T12:45:56.910Z,-75
2022-12-18T12:48:23.411Z,-74
2022-12-18T12:50:49.874Z,-74
2022-12-18T12:53:16.340Z,-74
2022-12-18T12:55:43.026Z,-74
2022-12-18T12:58:09.724Z,-74
2022-12-18T13:00:36.187Z,-75
2022-12-18T13:03:03.494Z,-74
2022-12-18T13:05:30.323Z,-74
2022-12-18T13:07:58.550Z,-74
2022-12-18T13:10:25.801Z,-74
2022-12-18T13:12:53.693Z,-74
2022-12-18T13:15:20.246Z,-74
2022-12-18T13:17:47.148Z,-74
2022-12-18T13:20:13.720Z,-74
2022-12-18T13:22:41.934Z,-74
2022-12-18T13:25:08.749Z,-75
2022-12-18T13:27:35.457Z,-75
2022-12-18T13:30:01.933Z,-74
2022-12-18T13:32:28.450Z,-74
2022-12-18T13:34:55.264Z,-74
2022-12-18T13:37:21.775Z,-74
2022-12-18T13:39:48.254Z,-74
2022-12-18T13:42:14.716Z,-75
2022-12-18T13:44:41.582Z,-74
2022-12-18T13:47:08.278Z,-74
2022-12-18T13:49:34.892Z,-74
2022-12-18T13:52:01.607Z,-74
2022-12-18T13:54:28.060Z,-74
2022-12-18T13:56:54.505Z,-74
2022-12-18T13:59:23.287Z,-74
2022-12-18T14:01:51.505Z,-74
2022-12-18T14:04:18.213Z,-74
2022-12-18T14:06:44.674Z,-74
2022-12-18T14:09:13.978Z,-74
2022-12-18T14:11:41.199Z,-75
2022-12-18T14:14:07.793Z,-74
2022-12-18T14:16:34.276Z,-74
2022-12-18T14:19:07.287Z,-74
2022-12-18T14:21:41.846Z,-74
2022-12-18T14:24:08.329Z,-74
2022-12-18T14:26:34.797Z,-74
2022-12-18T14:29:01.279Z,-74
2022-12-18T14:31:27.750Z,-74
2022-12-18T14:33:54.238Z,-74
2022-12-18T14:36:20.692Z,-74
2022-12-18T14:38:47.135Z,-74
2022-12-18T14:41:13.579Z,-74
2022-12-18T14:43:40.478Z,-74
2022-12-18T14:46:07.272Z,-74
2022-12-18T14:48:33.892Z,-74
2022-12-18T14:51:00.346Z,-74
2022-12-18T14:53:26.797Z,-74
2022-12-18T14:55:53.267Z,-74
2022-12-18T14:58:23.982Z,-74
2022-12-18T15:00:53.811Z,-72
2022-12-18T15:03:21.067Z,-75
2022-12-18T15:05:47.603Z,-75
2022-12-18T15:08:14.068Z,-75
2022-12-18T15:10:40.529Z,-75
2022-12-18T15:13:06.983Z,-75
2022-12-18T15:15:33.556Z,-74
2022-12-18T15:18:00.090Z,-73
2022-12-18T15:20:26.555Z,-74
2022-12-18T15:22:53.029Z,-75
2022-12-18T15:25:19.508Z,-74
2022-12-18T15:27:45.963Z,-74
2022-12-18T15:30:12.420Z,-74
2022-12-18T15:32:38.903Z,-74
2022-12-18T15:35:05.366Z,-74
2022-12-18T15:37:31.825Z,-75
2022-12-18T15:39:58.269Z,-75
2022-12-18T15:42:24.715Z,-74
2022-12-18T15:44:51.180Z,-71
2022-12-18T15:47:17.630Z,-74
2022-12-18T15:49:44.110Z,-74
2022-12-18T15:52:10.581Z,-74
2022-12-18T15:54:37.033Z,-74
2022-12-18T15:57:03.510Z,-74
2022-12-18T15:59:29.972Z,-74
2022-12-18T16:01:57.324Z,-74
2022-12-18T16:04:23.869Z,-74
2022-12-18T16:09:36.777Z,-74
2022-12-18T16:12:03.242Z,-75
2022-12-18T16:14:29.711Z,-77
2022-12-18T16:16:56.181Z,-73
2022-12-18T16:19:22.653Z,-73
2022-12-18T16:21:49.116Z,-69
2022-12-18T16:24:15.604Z,-75
2022-12-18T16:26:42.062Z,-75
2022-12-18T16:29:08.531Z,-75
2022-12-18T16:31:36.801Z,-75
2022-12-18T16:34:03.301Z,-75
2022-12-18T16:36:29.757Z,-75
2022-12-18T16:38:56.199Z,-75
2022-12-18T16:41:22.671Z,-75
2022-12-18T16:43:54.689Z,-75
2022-12-18T16:46:21.542Z,-75
2022-12-18T16:48:48.061Z,-75
2022-12-18T16:51:14.525Z,-75
2022-12-18T16:53:41.317Z,-75
2022-12-18T16:56:08.147Z,-75
2022-12-18T16:58:34.603Z,-75
2022-12-18T17:01:01.078Z,-76
2022-12-18T17:03:27.546Z,-75
2022-12-18T17:05:54.048Z,-75
2022-12-18T17:08:20.512Z,-75
2022-12-18T17:10:46.994Z,-75
2022-12-18T17:13:13.453Z,-75
2022-12-18T17:15:39.975Z,-75
2022-12-18T17:18:06.475Z,-75
2022-12-18T17:20:32.949Z,-75
2022-12-18T17:22:59.408Z,-75
2022-12-18T17:25:27.510Z,-76
2022-12-18T17:27:53.961Z,-75
2022-12-18T17:30:20.560Z,-75
2022-12-18T17:32:47.008Z,-75
2022-12-18T17:35:13.504Z,-75
2022-12-18T17:37:39.952Z,-74
2022-12-18T17:40:06.455Z,-75
2022-12-18T17:42:32.911Z,-75
2022-12-18T17:44:59.359Z,-75
2022-12-18T17:47:25.830Z,-75
2022-12-18T17:49:52.294Z,-75
2022-12-18T17:52:19.992Z,-75
2022-12-18T17:54:46.464Z,-75
2022-12-18T17:57:13.735Z,-75
2022-12-18T17:59:40.210Z,-75
2022-12-18T18:02:06.836Z,-75
2022-12-18T18:04:33.407Z,-75
2022-12-18T18:06:59.861Z,-75
2022-12-18T18:09:26.373Z,-75
2022-12-18T18:11:52.959Z,-75
2022-12-18T18:14:21.504Z,-75
2022-12-18T18:16:47.993Z,-75
2022-12-18T18:19:14.453Z,-75
2022-12-18T18:21:40.907Z,-75
2022-12-18T18:24:07.713Z,-75
2022-12-18T18:26:34.173Z,-75
2022-12-18T18:29:00.686Z,-75
2022-12-18T18:31:29.518Z,-75
2022-12-18T18:33:55.998Z,-75
2022-12-18T18:36:22.453Z,-75
2022-12-18T18:38:48.928Z,-75
2022-12-18T18:41:15.400Z,-75
2022-12-18T18:43:42.193Z,-75
2022-12-18T18:46:08.931Z,-75
2022-12-18T18:48:35.418Z,-76
2022-12-18T18:51:03.459Z,-76
2022-12-18T18:53:29.929Z,-75
2022-12-18T18:56:34.483Z,-75
2022-12-18T18:58:42.848Z,-76
2022-12-18T19:01:09.545Z,-75
2022-12-18T19:03:36.140Z,-76
2022-12-18T19:06:02.607Z,-75
2022-12-18T19:08:29.062Z,-75
2022-12-18T19:10:57.789Z,-75
2022-12-18T19:13:24.455Z,-75
2022-12-18T19:15:50.932Z,-76
2022-12-18T19:18:17.658Z,-75
2022-12-18T19:20:44.125Z,-75
2022-12-18T19:23:10.582Z,-75
2022-12-18T19:25:40.673Z,-75
2022-12-18T19:28:12.083Z,-76
2022-12-18T19:30:48.204Z,-75
2022-12-18T19:33:34.498Z,-75
2022-12-18T19:36:01.136Z,-76
2022-12-18T19:38:30.023Z,-75
2022-12-18T19:40:56.740Z,-75
2022-12-18T19:43:23.202Z,-75
2022-12-18T19:45:49.727Z,-75
2022-12-18T19:48:16.246Z,-75
2022-12-18T19:50:42.713Z,-75
2022-12-18T19:53:09.215Z,-75
2022-12-18T19:55:37.179Z,-75
2022-12-18T19:58:03.627Z,-75
2022-12-18T20:00:30.099Z,-75
2022-12-18T20:03:03.882Z,-75
2022-12-18T20:05:34.207Z,-75
2022-12-18T20:08:00.666Z,-75
2022-12-18T20:10:27.416Z,-76
2022-12-18T20:12:53.887Z,-76
2022-12-18T20:15:21.230Z,-75
2022-12-18T20:17:47.699Z,-75
2022-12-18T20:20:14.254Z,-75
2022-12-18T20:22:40.800Z,-75
2022-12-18T20:25:07.332Z,-75
2022-12-18T20:27:33.807Z,-75
2022-12-18T20:30:00.294Z,-76
2022-12-18T20:32:26.749Z,-75
2022-12-18T20:34:56.049Z,-75
2022-12-18T20:37:23.139Z,-75
2022-12-18T20:39:50.163Z,-76
2022-12-18T20:42:17.089Z,-76
2022-12-18T20:44:43.531Z,-76
2022-12-18T20:47:09.987Z,-75
2022-12-18T20:49:36.449Z,-75
2022-12-18T20:52:04.048Z,-75
2022-12-18T20:54:30.509Z,-76
2022-12-18T20:56:56.995Z,-75
2022-12-18T20:59:23.461Z,-75
2022-12-18T21:01:50.076Z,-76
2022-12-18T21:04:17.503Z,-75
2022-12-18T21:06:49.423Z,-75
2022-12-18T21:09:18.745Z,-75
2022-12-18T21:11:45.228Z,-75
2022-12-18T21:14:11.691Z,-75
2022-12-18T21:16:38.270Z,-75
2022-12-18T21:19:04.763Z,-76
2022-12-18T21:21:38.506Z,-75
2022-12-18T21:24:05.283Z,-75
2022-12-18T21:26:31.755Z,-75
2022-12-18T21:28:58.223Z,-76
2022-12-18T21:31:24.885Z,-75
2022-12-18T21:33:52.674Z,-76
2022-12-18T21:36:22.986Z,-75
2022-12-18T21:38:49.465Z,-75
2022-12-18T21:41:16.169Z,-75
2022-12-18T21:43:42.838Z,-75
2022-12-18T21:46:09.342Z,-75
2022-12-18T21:48:35.835Z,-76
2022-12-18T21:51:03.549Z,-76
2022-12-18T21:53:32.226Z,-75
2022-12-18T21:55:58.696Z,-75
2022-12-18T21:58:25.148Z,-75
2022-12-18T22:00:51.610Z,-75
2022-12-18T22:03:19.413Z,-75
2022-12-18T22:05:45.973Z,-76
2022-12-18T22:08:15.798Z,-75
2022-12-18T22:10:42.251Z,-75
2022-12-18T22:13:08.835Z,-75
2022-12-18T22:15:35.358Z,-75
2022-12-18T22:18:01.878Z,-76
2022-12-18T22:20:28.343Z,-76
2022-12-18T22:22:55.971Z,-76
2022-12-18T22:25:22.443Z,-76
2022-12-18T22:27:48.927Z,-76
2022-12-18T22:30:15.392Z,-75
2022-12-18T22:32:41.881Z,-75
2022-12-18T22:35:10.657Z,-76
2022-12-18T22:37:42.008Z,-75
2022-12-18T22:40:08.632Z,-75
2022-12-18T22:42:35.303Z,-75
2022-12-18T22:45:01.782Z,-75
2022-12-18T22:47:30.377Z,-75
2022-12-18T22:49:57.189Z,-75
2022-12-18T22:52:24.730Z,-76
2022-12-18T22:54:51.610Z,-75
2022-12-18T22:57:20.240Z,-76
2022-12-18T22:59:46.705Z,-75
2022-12-18T23:02:13.243Z,-76
2022-12-18T23:04:39.805Z,-76
2022-12-18T23:07:06.275Z,-75
2022-12-18T23:09:32.765Z,-75
2022-12-18T23:11:59.215Z,-76
2022-12-18T23:14:25.725Z,-76
2022-12-18T23:16:53.011Z,-75
2022-12-18T23:19:19.739Z,-76
2022-12-18T23:21:46.196Z,-75
2022-12-18T23:24:12.665Z,-75
2022-12-18T23:26:39.143Z,-75
2022-12-18T23:29:05.624Z,-75
2022-12-18T23:31:32.284Z,-75
2022-12-18T23:33:58.850Z,-75
2022-12-18T23:36:25.318Z,-76
2022-12-18T23:38:51.789Z,-76
2022-12-18T23:41:18.228Z,-75
2022-12-18T23:43:44.691Z,-75
2022-12-18T23:46:12.901Z,-76
2022-12-18T23:48:39.354Z,-76
2022-12-18T23:51:05.819Z,-76
2022-12-18T23:53:32.267Z,-76
2022-12-18T23:55:58.735Z,-76
2022-12-18T23:58:26.084Z,-76
